createdAt,value
2018-12-13T00:01:52.474Z,18.93
2018-12-13T00:04:21.173Z,19.07
2018-12-13T00:06:49.865Z,19.17
2018-12-13T00:09:18.467Z,18.03
2018-12-13T00:11:47.109Z,18.87
2018-12-13T00:14:15.737Z,18.17
2018-12-13T00:16:44.491Z,17.87
2018-12-13T00:19:13.154Z,18.13
2018-12-13T00:21:42.143Z,17.47
2018-12-13T00:24:10.782Z,17.87
2018-12-13T00:26:39.355Z,17.27
2018-12-13T00:29:08.745Z,18.17
2018-12-13T00:31:37.471Z,18.23
2018-12-13T00:34:06.104Z,18.53
2018-12-13T00:36:39.677Z,17.73
2018-12-13T00:39:07.717Z,18.63
2018-12-13T00:41:36.297Z,18.27
2018-12-13T00:44:05.211Z,19.27
2018-12-13T00:46:34.193Z,17.33
2018-12-13T00:49:04.502Z,18.20
2018-12-13T00:51:33.086Z,18.73
2018-12-13T00:54:06.656Z,18.27
2018-12-13T00:56:35.274Z,18.57
2018-12-13T00:59:05.691Z,19.03
2018-12-13T01:01:34.329Z,18.90
2018-12-13T01:04:06.187Z,20.17
2018-12-13T01:06:35.106Z,19.43
2018-12-13T01:09:06.698Z,19.93
2018-12-13T01:11:35.313Z,19.63
2018-12-13T01:14:05.762Z,20.77
2018-12-13T01:16:34.596Z,20.67
2018-12-13T01:21:42.811Z,21.17
2018-12-13T01:24:11.542Z,21.00
2018-12-13T01:26:40.214Z,21.50
2018-12-13T01:29:09.751Z,21.13
2018-12-13T01:31:40.353Z,20.20
2018-12-13T01:34:09.547Z,20.97
2018-12-13T01:36:38.109Z,19.70
2018-12-13T01:39:07.191Z,21.33
2018-12-13T01:41:36.233Z,22.20
2018-12-13T01:44:06.498Z,20.00
2018-12-13T01:46:35.886Z,21.80
2018-12-13T01:49:05.263Z,21.37
2018-12-13T01:51:33.931Z,20.60
2018-12-13T01:54:04.173Z,22.80
2018-12-13T01:56:32.775Z,22.50
2018-12-13T01:59:03.170Z,20.60
2018-12-13T02:01:33.069Z,20.30
2018-12-13T02:04:03.158Z,20.37
2018-12-13T02:06:31.747Z,20.27
2018-12-13T02:09:00.511Z,19.13
2018-12-13T02:11:29.430Z,19.83
2018-12-13T02:13:58.280Z,19.07
2018-12-13T02:16:26.975Z,19.10
2018-12-13T02:18:56.314Z,18.63
2018-12-13T02:21:25.325Z,19.53
2018-12-13T02:23:53.977Z,19.30
2018-12-13T02:26:22.830Z,18.43
2018-12-13T02:28:51.504Z,18.97
2018-12-13T02:31:20.107Z,18.43
2018-12-13T02:33:48.759Z,18.77
2018-12-13T02:36:17.459Z,19.00
2018-12-13T02:38:46.078Z,18.43
2018-12-13T02:41:14.663Z,19.17
2018-12-13T02:43:43.251Z,18.13
2018-12-13T02:46:11.884Z,17.70
2018-12-13T02:48:40.821Z,17.80
2018-12-13T02:51:09.411Z,18.40
2018-12-13T02:53:38.083Z,18.40
2018-12-13T02:56:07.007Z,17.23
2018-12-13T02:58:37.514Z,18.67
2018-12-13T03:01:06.173Z,18.03
2018-12-13T03:03:35.138Z,18.33
2018-12-13T03:06:05.790Z,17.77
2018-12-13T03:08:34.462Z,17.37
2018-12-13T03:11:05.233Z,17.40
2018-12-13T03:13:33.887Z,17.80
2018-12-13T03:16:04.154Z,18.17
2018-12-13T03:18:34.072Z,18.07
2018-12-13T03:21:03.975Z,17.63
2018-12-13T03:23:33.121Z,17.80
2018-12-13T03:26:02.770Z,18.47
2018-12-13T03:28:31.343Z,17.23
2018-12-13T03:31:00.354Z,16.87
2018-12-13T03:33:28.981Z,17.50
2018-12-13T03:35:57.557Z,16.83
2018-12-13T03:38:26.451Z,16.00
2018-12-13T03:40:55.038Z,16.00
2018-12-13T03:43:23.641Z,15.23
2018-12-13T03:45:52.305Z,14.83
2018-12-13T03:48:21.155Z,14.00
2018-12-13T03:50:49.792Z,14.33
2018-12-13T03:53:18.475Z,14.23
2018-12-13T03:55:47.164Z,14.17
2018-12-13T03:58:15.907Z,14.40
2018-12-13T04:00:44.587Z,13.70
2018-12-13T04:03:13.452Z,12.47
2018-12-13T04:05:42.088Z,13.77
2018-12-13T04:08:10.770Z,13.10
2018-12-13T04:10:39.580Z,12.00
2018-12-13T04:13:09.526Z,13.10
2018-12-13T04:15:38.146Z,11.80
2018-12-13T04:18:06.866Z,11.63
2018-12-13T04:20:36.517Z,12.70
2018-12-13T04:23:05.421Z,11.97
2018-12-13T04:25:34.473Z,12.20
2018-12-13T04:28:05.581Z,11.17
2018-12-13T04:30:34.522Z,11.57
2018-12-13T04:33:08.142Z,11.63
2018-12-13T04:35:36.706Z,10.87
2018-12-13T04:38:05.394Z,11.27
2018-12-13T04:40:34.106Z,12.03
2018-12-13T04:43:03.877Z,11.50
2018-12-13T04:45:32.535Z,11.83
2018-12-13T04:48:06.756Z,11.90
2018-12-13T04:50:35.431Z,11.50
2018-12-13T04:53:05.808Z,12.20
2018-12-13T04:55:34.413Z,12.60
2018-12-13T04:58:04.627Z,11.77
2018-12-13T05:00:33.258Z,14.13
2018-12-13T05:03:04.552Z,12.50
2018-12-13T05:05:33.679Z,12.50
2018-12-13T05:08:04.231Z,12.50
2018-12-13T05:10:56.327Z,13.43
2018-12-13T05:13:25.195Z,13.50
2018-12-13T05:15:53.902Z,12.20
2018-12-13T05:18:22.522Z,12.40
2018-12-13T05:20:51.594Z,11.93
2018-12-13T05:23:20.693Z,12.83
2018-12-13T05:25:49.328Z,12.70
2018-12-13T05:28:18.665Z,12.70
2018-12-13T05:30:47.304Z,12.37
2018-12-13T05:33:15.991Z,12.77
2018-12-13T05:35:44.599Z,13.30
2018-12-13T05:38:13.365Z,13.83
2018-12-13T05:40:42.099Z,12.80
2018-12-13T05:43:10.705Z,13.60
2018-12-13T05:45:39.425Z,13.50
2018-12-13T05:48:08.044Z,14.47
2018-12-13T05:50:36.655Z,13.23
2018-12-13T05:53:05.933Z,13.43
2018-12-13T05:55:34.724Z,13.50
2018-12-13T05:58:04.647Z,13.80
2018-12-13T06:00:33.493Z,13.87
2018-12-13T06:03:03.938Z,14.03
2018-12-13T06:05:32.639Z,15.37
2018-12-13T06:08:03.166Z,14.50
2018-12-13T06:10:31.748Z,16.47
2018-12-13T06:13:00.407Z,15.63
2018-12-13T06:15:29.028Z,15.87
2018-12-13T06:17:57.665Z,16.47
2018-12-13T06:20:26.271Z,16.73
2018-12-13T06:22:54.878Z,16.97
2018-12-13T06:25:23.446Z,15.83
2018-12-13T06:27:52.144Z,17.40
2018-12-13T06:30:20.774Z,17.37
2018-12-13T06:32:49.563Z,16.33
2018-12-13T06:35:18.150Z,16.13
2018-12-13T06:37:46.873Z,15.13
2018-12-13T06:40:15.774Z,15.57
2018-12-13T06:42:45.013Z,16.40
2018-12-13T06:45:13.681Z,15.37
2018-12-13T06:47:42.457Z,16.13
2018-12-13T06:50:11.344Z,15.77
2018-12-13T06:52:40.031Z,16.80
2018-12-13T06:55:08.802Z,16.40
2018-12-13T06:57:38.035Z,16.73
2018-12-13T07:00:08.412Z,16.70
2018-12-13T07:02:37.047Z,15.60
2018-12-13T07:05:06.006Z,16.10
2018-12-13T07:07:34.790Z,16.27
2018-12-13T07:10:06.086Z,16.93
2018-12-13T07:12:34.688Z,16.30
2018-12-13T07:15:04.571Z,16.37
2018-12-13T07:17:33.394Z,16.60
2018-12-13T07:20:02.884Z,17.10
2018-12-13T07:22:31.572Z,16.93
2018-12-13T07:25:00.502Z,17.10
2018-12-13T07:27:29.547Z,16.97
2018-12-13T07:29:58.222Z,15.97
2018-12-13T07:32:26.870Z,16.40
2018-12-13T07:35:01.155Z,16.97
2018-12-13T07:37:26.313Z,17.40
2018-12-13T07:39:55.043Z,16.17
2018-12-13T07:42:23.791Z,16.40
2018-12-13T07:44:52.495Z,15.87
2018-12-13T07:47:21.267Z,16.57
2018-12-13T07:49:50.263Z,16.13
2018-12-13T07:52:18.912Z,16.93
2018-12-13T07:54:47.799Z,15.70
2018-12-13T07:57:16.505Z,15.47
2018-12-13T07:59:45.095Z,16.20
2018-12-13T08:02:13.969Z,16.27
2018-12-13T08:04:42.647Z,16.80
2018-12-13T08:07:11.335Z,16.10
2018-12-13T08:09:40.122Z,16.20
2018-12-13T08:12:08.803Z,16.63
2018-12-13T08:14:37.648Z,17.77
2018-12-13T08:17:06.329Z,17.10
2018-12-13T08:19:34.991Z,18.03
2018-12-13T08:22:05.473Z,16.97
2018-12-13T08:24:34.109Z,18.90
2018-12-13T08:27:04.395Z,19.47
2018-12-13T08:29:33.092Z,18.33
2018-12-13T08:32:03.580Z,18.73
2018-12-13T08:34:32.703Z,17.67
2018-12-13T08:37:03.485Z,18.60
2018-12-13T08:39:32.170Z,18.10
2018-12-13T08:42:03.232Z,17.37
2018-12-13T08:44:32.158Z,17.97
2018-12-13T08:47:00.877Z,17.17
2018-12-13T08:49:29.553Z,16.07
2018-12-13T08:51:58.150Z,15.83
2018-12-13T08:54:26.747Z,14.80
2018-12-13T08:56:55.517Z,14.13
2018-12-13T08:59:24.239Z,14.90
2018-12-13T09:01:54.833Z,14.73
2018-12-13T09:04:23.522Z,14.07
2018-12-13T09:06:52.111Z,13.20
2018-12-13T09:09:20.913Z,13.57
2018-12-13T09:11:49.503Z,13.37
2018-12-13T09:14:18.307Z,12.90
2018-12-13T09:16:47.038Z,13.60
2018-12-13T09:19:15.693Z,13.00
2018-12-13T09:21:44.407Z,12.97
2018-12-13T09:24:13.137Z,12.97
2018-12-13T09:26:41.771Z,13.03
2018-12-13T09:29:10.581Z,12.33
2018-12-13T09:31:39.389Z,13.00
2018-12-13T09:34:08.110Z,12.13
2018-12-13T09:36:36.706Z,12.63
2018-12-13T09:39:07.472Z,12.53
2018-12-13T09:41:36.326Z,12.27
2018-12-13T09:44:07.280Z,12.13
2018-12-13T09:46:35.902Z,12.57
2018-12-13T09:49:04.706Z,11.87
2018-12-13T09:51:33.319Z,12.60
2018-12-13T09:54:03.658Z,11.60
2018-12-13T09:56:32.613Z,12.27
2018-12-13T09:59:03.068Z,11.40
2018-12-13T10:01:31.712Z,10.60
2018-12-13T10:04:00.413Z,12.13
2018-12-13T10:06:29.015Z,11.23
2018-12-13T10:08:57.693Z,12.20
2018-12-13T10:11:26.485Z,11.83
2018-12-13T10:13:55.064Z,11.20
2018-12-13T10:16:23.760Z,10.20
2018-12-13T10:18:52.634Z,10.43
2018-12-13T10:21:21.333Z,10.10
2018-12-13T10:23:50.076Z,9.97
2018-12-13T10:26:19.625Z,9.67
2018-12-13T10:28:48.292Z,9.47
2018-12-13T10:31:16.914Z,10.40
2018-12-13T10:33:45.948Z,9.17
2018-12-13T10:36:14.551Z,9.80
2018-12-13T10:38:43.533Z,9.13
2018-12-13T10:41:12.460Z,8.70
2018-12-13T10:43:41.550Z,8.70
2018-12-13T10:46:10.489Z,8.30
2018-12-13T10:48:39.271Z,8.53
2018-12-13T10:51:07.982Z,8.10
2018-12-13T10:53:36.726Z,8.13
2018-12-13T10:56:05.825Z,8.10
2018-12-13T10:58:35.492Z,7.83
2018-12-13T11:01:11.783Z,8.40
2018-12-13T11:03:40.345Z,7.70
2018-12-13T11:06:08.936Z,8.00
2018-12-13T11:08:37.935Z,8.13
2018-12-13T11:11:06.595Z,7.50
2018-12-13T11:13:35.253Z,8.43
2018-12-13T11:16:05.330Z,8.13
2018-12-13T11:18:34.012Z,7.13
2018-12-13T11:21:03.939Z,7.33
2018-12-13T11:23:32.581Z,7.50
2018-12-13T11:26:03.139Z,7.50
2018-12-13T11:28:43.085Z,13.00
2018-12-13T11:31:11.878Z,8.93
2018-12-13T11:33:40.991Z,8.50
2018-12-13T11:36:09.656Z,7.20
2018-12-13T11:38:38.511Z,7.40
2018-12-13T11:41:07.071Z,7.30
2018-12-13T11:43:35.754Z,7.20
2018-12-13T11:46:05.218Z,7.27
2018-12-13T11:48:33.820Z,6.53
2018-12-13T11:51:04.622Z,6.90
2018-12-13T11:53:33.615Z,6.83
2018-12-13T11:56:04.087Z,6.97
2018-12-13T11:58:32.687Z,6.83
2018-12-13T12:01:02.850Z,6.60
2018-12-13T12:03:31.856Z,6.97
2018-12-13T12:06:04.033Z,6.77
2018-12-13T12:08:32.651Z,7.43
2018-12-13T12:11:04.257Z,8.77
2018-12-13T12:13:33.024Z,7.80
2018-12-13T12:16:03.898Z,6.43
2018-12-13T12:18:32.500Z,6.53
2018-12-13T12:21:03.203Z,6.53
2018-12-13T12:23:32.090Z,7.83
2018-12-13T12:26:00.652Z,6.97
2018-12-13T12:28:29.276Z,7.07
2018-12-13T12:30:57.928Z,7.17
2018-12-13T12:33:26.601Z,6.40
2018-12-13T12:35:55.200Z,7.33
2018-12-13T12:38:23.813Z,7.60
2018-12-13T12:40:52.734Z,6.67
2018-12-13T12:43:22.172Z,6.93
2018-12-13T12:45:50.804Z,6.77
2018-12-13T12:48:19.497Z,6.47
2018-12-13T12:50:48.186Z,6.30
2018-12-13T12:53:16.853Z,7.03
2018-12-13T12:55:45.584Z,6.10
2018-12-13T12:58:14.327Z,6.03
2018-12-13T13:00:43.343Z,6.37
2018-12-13T13:03:12.153Z,7.73
2018-12-13T13:05:40.729Z,7.27
2018-12-13T13:08:09.356Z,7.10
2018-12-13T13:10:38.444Z,6.10
2018-12-13T13:13:07.237Z,6.63
2018-12-13T13:15:35.951Z,6.13
2018-12-13T13:18:06.607Z,6.70
2018-12-13T13:20:35.168Z,6.57
2018-12-13T13:23:05.154Z,6.40
2018-12-13T13:25:34.439Z,6.67
2018-12-13T13:28:05.046Z,6.27
2018-12-13T13:30:33.726Z,6.87
2018-12-13T13:33:03.866Z,7.00
2018-12-13T13:35:32.425Z,6.90
2018-12-13T13:38:02.773Z,7.00
2018-12-13T13:40:31.350Z,7.13
2018-12-13T13:43:00.298Z,7.00
2018-12-13T13:45:28.928Z,7.03
2018-12-13T13:47:57.592Z,7.13
2018-12-13T13:50:26.200Z,6.97
2018-12-13T13:52:55.199Z,7.00
2018-12-13T13:55:23.793Z,7.33
2018-12-13T13:57:52.534Z,7.83
2018-12-13T14:00:21.147Z,8.27
2018-12-13T14:02:50.265Z,8.37
2018-12-13T14:05:18.976Z,8.33
2018-12-13T14:07:47.772Z,6.83
2018-12-13T14:10:16.594Z,7.60
2018-12-13T14:12:45.383Z,7.00
2018-12-13T14:15:14.055Z,7.23
2018-12-13T14:17:43.075Z,6.83
2018-12-13T14:20:11.974Z,6.73
2018-12-13T14:22:40.535Z,7.67
2018-12-13T14:25:09.620Z,7.43
2018-12-13T14:27:38.266Z,6.73
2018-12-13T14:30:07.168Z,6.63
2018-12-13T14:32:35.976Z,7.30
2018-12-13T14:35:05.867Z,7.00
2018-12-13T14:37:34.566Z,6.83
2018-12-13T14:40:04.672Z,6.87
2018-12-13T14:42:34.437Z,6.60
2018-12-13T14:45:05.583Z,6.50
2018-12-13T14:47:34.553Z,6.80
2018-12-13T14:50:05.599Z,7.40
2018-12-13T14:52:34.253Z,6.17
2018-12-13T14:55:05.185Z,6.70
2018-12-13T14:57:33.835Z,6.67
2018-12-13T15:00:03.965Z,6.90
2018-12-13T15:02:32.645Z,7.07
2018-12-13T15:05:03.024Z,6.40
2018-12-13T15:07:31.880Z,6.60
2018-12-13T15:10:00.538Z,6.30
2018-12-13T15:12:29.570Z,6.13
2018-12-13T15:14:58.225Z,6.60
2018-12-13T15:17:27.895Z,6.37
2018-12-13T15:19:56.638Z,5.87
2018-12-13T15:22:25.802Z,7.33
2018-12-13T15:24:54.485Z,6.47
2018-12-13T15:27:23.056Z,5.77
2018-12-13T15:29:51.781Z,6.37
2018-12-13T15:32:20.430Z,6.83
2018-12-13T15:34:49.477Z,6.77
2018-12-13T15:37:18.058Z,6.17
2018-12-13T15:39:46.783Z,7.00
2018-12-13T15:42:15.630Z,6.77
2018-12-13T15:44:46.803Z,7.27
2018-12-13T15:47:15.618Z,6.57
2018-12-13T15:49:45.341Z,6.90
2018-12-13T15:52:13.993Z,6.73
2018-12-13T15:54:42.679Z,7.30
2018-12-13T15:57:11.325Z,7.10
2018-12-13T15:59:39.917Z,7.23
2018-12-13T16:02:09.766Z,6.73
2018-12-13T16:04:38.447Z,6.60
2018-12-13T16:07:07.104Z,7.23
2018-12-13T16:09:35.656Z,7.10
2018-12-13T16:12:04.279Z,7.00
2018-12-13T16:14:32.992Z,6.63
2018-12-13T16:17:03.213Z,6.70
2018-12-13T16:19:31.851Z,6.23
2018-12-13T16:22:00.563Z,6.97
2018-12-13T16:24:29.586Z,6.57
2018-12-13T16:26:58.163Z,6.63
2018-12-13T16:29:26.918Z,6.33
2018-12-13T16:31:55.513Z,6.03
2018-12-13T16:34:24.672Z,6.33
2018-12-13T16:36:53.336Z,6.57
2018-12-13T16:39:24.486Z,6.47
2018-12-13T16:41:53.214Z,5.70
2018-12-13T16:44:21.913Z,5.70
2018-12-13T16:46:50.490Z,6.77
2018-12-13T16:49:19.212Z,6.07
2018-12-13T16:51:47.925Z,6.20
2018-12-13T16:54:16.652Z,5.70
2018-12-13T16:56:45.277Z,5.80
2018-12-13T16:59:14.113Z,5.50
2018-12-13T17:01:42.686Z,5.90
2018-12-13T17:04:11.331Z,6.33
2018-12-13T17:06:39.953Z,5.30
2018-12-13T17:09:08.614Z,5.53
2018-12-13T17:11:37.283Z,6.07
2018-12-13T17:14:06.774Z,5.77
2018-12-13T17:16:35.525Z,6.37
2018-12-13T17:19:05.426Z,5.57
2018-12-13T17:21:34.102Z,5.20
2018-12-13T17:24:04.542Z,5.27
2018-12-13T17:26:33.213Z,5.80
2018-12-13T17:29:03.664Z,5.70
2018-12-13T17:31:32.304Z,6.23
2018-12-13T17:34:03.284Z,5.67
2018-12-13T17:36:32.428Z,5.90
2018-12-13T17:39:04.739Z,5.90
2018-12-13T17:41:33.420Z,6.23
2018-12-13T17:44:02.963Z,6.13
2018-12-13T17:46:31.595Z,6.30
2018-12-13T17:49:00.198Z,6.40
2018-12-13T17:51:29.239Z,5.77
2018-12-13T17:53:57.996Z,6.40
2018-12-13T17:56:26.739Z,6.80
2018-12-13T17:58:55.569Z,6.67
2018-12-13T18:01:24.721Z,7.03
2018-12-13T18:03:53.799Z,6.47
2018-12-13T18:06:22.715Z,6.67
2018-12-13T18:08:51.391Z,6.77
2018-12-13T18:11:20.338Z,6.23
2018-12-13T18:13:49.158Z,5.63
2018-12-13T18:16:18.021Z,6.40
2018-12-13T18:18:46.871Z,6.63
2018-12-13T18:21:15.595Z,6.27
2018-12-13T18:23:44.544Z,6.83
2018-12-13T18:26:13.232Z,6.47
2018-12-13T18:28:42.149Z,6.37
2018-12-13T18:31:10.779Z,6.80
2018-12-13T18:33:39.448Z,6.10
2018-12-13T18:36:08.275Z,6.83
2018-12-13T18:38:37.143Z,6.50
2018-12-13T18:41:06.143Z,6.67
2018-12-13T18:43:34.981Z,6.20
2018-12-13T18:46:05.795Z,6.43
2018-12-13T18:48:34.671Z,6.40
2018-12-13T18:51:05.306Z,6.40
2018-12-13T18:53:34.011Z,7.23
2018-12-13T18:56:03.770Z,6.80
2018-12-13T18:58:32.651Z,6.50
2018-12-13T19:01:03.253Z,7.30
2018-12-13T19:03:32.212Z,6.33
2018-12-13T19:06:06.934Z,6.50
2018-12-13T19:08:36.845Z,7.27
2018-12-13T19:11:08.716Z,6.83
2018-12-13T19:13:37.520Z,7.00
2018-12-13T19:16:06.410Z,7.23
2018-12-13T19:18:36.006Z,7.67
2018-12-13T19:21:05.757Z,7.47
2018-12-13T19:23:34.842Z,8.20
2018-12-13T19:26:05.219Z,8.00
2018-12-13T19:28:34.185Z,7.83
2018-12-13T19:31:05.463Z,7.47
2018-12-13T19:33:34.231Z,7.83
2018-12-13T19:36:04.701Z,7.77
2018-12-13T19:38:33.622Z,7.63
2018-12-13T19:41:04.161Z,8.67
2018-12-13T19:43:33.725Z,7.50
2018-12-13T19:46:04.003Z,7.40
2018-12-13T19:48:32.923Z,7.90
2018-12-13T19:51:02.850Z,7.37
2018-12-13T19:53:32.487Z,7.90
2018-12-13T19:56:03.830Z,8.30
2018-12-13T19:58:33.012Z,8.27
2018-12-13T20:01:03.122Z,9.07
2018-12-13T20:03:32.192Z,9.37
2018-12-13T20:06:03.570Z,8.77
2018-12-13T20:08:33.613Z,8.80
2018-12-13T20:11:04.131Z,9.00
2018-12-13T20:13:33.108Z,8.53
2018-12-13T20:16:02.784Z,8.43
2018-12-13T20:18:31.708Z,8.20
2018-12-13T20:21:00.565Z,8.30
2018-12-13T20:23:29.275Z,8.80
2018-12-13T20:25:58.172Z,8.87
2018-12-13T20:28:26.955Z,8.43
2018-12-13T20:30:56.644Z,8.80
2018-12-13T20:33:25.690Z,8.77
2018-12-13T20:35:54.352Z,8.47
2018-12-13T20:38:23.167Z,8.60
2018-12-13T20:40:51.970Z,9.03
2018-12-13T20:43:22.514Z,9.50
2018-12-13T20:45:51.294Z,9.13
2018-12-13T20:48:20.206Z,8.33
2018-12-13T20:50:49.162Z,8.30
2018-12-13T20:53:18.316Z,8.63
2018-12-13T20:55:47.083Z,9.20
2018-12-13T20:58:16.025Z,9.90
2018-12-13T21:00:47.665Z,9.43
2018-12-13T21:03:16.659Z,9.30
2018-12-13T21:05:45.847Z,9.30
2018-12-13T21:08:14.792Z,9.00
2018-12-13T21:10:43.811Z,9.73
2018-12-13T21:13:12.773Z,10.10
2018-12-13T21:15:55.163Z,9.53
2018-12-13T21:18:25.213Z,9.47
2018-12-13T21:20:54.144Z,9.70
2018-12-13T21:23:22.990Z,8.87
2018-12-13T21:25:51.865Z,9.37
2018-12-13T21:28:20.511Z,9.80
2018-12-13T21:30:49.181Z,9.47
2018-12-13T21:33:17.810Z,10.60
2018-12-13T21:35:46.440Z,9.73
2018-12-13T21:38:15.056Z,9.47
2018-12-13T21:40:43.870Z,10.33
2018-12-13T21:43:12.524Z,10.90
2018-12-13T21:45:41.284Z,10.83
2018-12-13T21:48:10.218Z,9.83
2018-12-13T21:50:39.223Z,9.20
2018-12-13T21:53:07.910Z,10.60
2018-12-13T21:55:36.937Z,9.73
2018-12-13T21:58:06.237Z,9.53
2018-12-13T22:00:34.826Z,10.53
2018-12-13T22:03:04.980Z,9.07
2018-12-13T22:05:34.182Z,10.10
2018-12-13T22:08:04.519Z,9.53
2018-12-13T22:10:33.167Z,10.13
2018-12-13T22:13:03.218Z,10.20
2018-12-13T22:15:31.850Z,11.00
2018-12-13T22:18:00.805Z,10.47
2018-12-13T22:20:29.760Z,9.97
2018-12-13T22:22:58.337Z,10.17
2018-12-13T22:25:27.093Z,10.90
2018-12-13T22:27:55.798Z,10.20
2018-12-13T22:30:24.410Z,10.67
2018-12-13T22:32:53.147Z,9.97
2018-12-13T22:35:22.112Z,10.90
2018-12-13T22:37:50.780Z,10.87
2018-12-13T22:40:19.536Z,10.67
2018-12-13T22:42:48.150Z,10.50
2018-12-13T22:45:16.868Z,11.23
2018-12-13T22:47:45.582Z,10.37
2018-12-13T22:50:14.370Z,10.13
2018-12-13T22:52:43.327Z,10.77
2018-12-13T22:55:12.323Z,11.43
2018-12-13T22:57:40.970Z,10.87
2018-12-13T23:00:11.102Z,10.97
2018-12-13T23:02:40.211Z,11.23
2018-12-13T23:05:09.016Z,11.37
2018-12-13T23:07:38.165Z,12.50
2018-12-13T23:10:06.751Z,11.77
2018-12-13T23:12:35.463Z,11.63
2018-12-13T23:15:06.539Z,12.23
2018-12-13T23:17:35.244Z,11.10
2018-12-13T23:20:04.979Z,12.33
2018-12-13T23:22:33.848Z,12.17
2018-12-13T23:25:03.372Z,12.63
2018-12-13T23:27:31.974Z,12.43
2018-12-13T23:30:00.816Z,13.23
2018-12-13T23:32:29.464Z,12.47
2018-12-13T23:34:58.027Z,13.83
2018-12-13T23:37:26.646Z,13.23
2018-12-13T23:39:55.277Z,12.53
2018-12-13T23:42:23.853Z,12.77
2018-12-13T23:44:52.483Z,13.27
2018-12-13T23:47:21.236Z,13.10
2018-12-13T23:49:49.854Z,13.43
2018-12-13T23:52:19.358Z,13.07
2018-12-13T23:54:48.362Z,12.93
2018-12-13T23:57:16.976Z,12.87
2018-12-13T23:59:45.661Z,13.10
